sensor_id;sensor_type;location;lat;lon;timestamp;P1;durP1;ratioP1;P2;durP2;ratioP2
635;SDS011;302;50.206;8.196;2022-09-20T00:00:29;2.80;;;2.47;;
635;SDS011;302;50.206;8.196;2022-09-20T00:02:54;4.03;;;3.10;;
635;SDS011;302;50.206;8.196;2022-09-20T00:05:19;4.05;;;3.03;;
635;SDS011;302;50.206;8.196;2022-09-20T00:07:45;6.88;;;3.80;;
635;SDS011;302;50.206;8.196;2022-09-20T00:10:10;4.82;;;3.03;;
635;SDS011;302;50.206;8.196;2022-09-20T00:12:35;7.10;;;4.33;;
635;SDS011;302;50.206;8.196;2022-09-20T00:15:00;7.93;;;3.80;;
635;SDS011;302;50.206;8.196;2022-09-20T00:17:26;6.00;;;3.50;;
635;SDS011;302;50.206;8.196;2022-09-20T00:19:51;3.20;;;2.90;;
635;SDS011;302;50.206;8.196;2022-09-20T00:22:16;6.03;;;3.33;;
635;SDS011;302;50.206;8.196;2022-09-20T00:24:41;4.13;;;3.17;;
635;SDS011;302;50.206;8.196;2022-09-20T00:27:06;6.88;;;3.88;;
635;SDS011;302;50.206;8.196;2022-09-20T00:29:31;6.40;;;3.60;;
635;SDS011;302;50.206;8.196;2022-09-20T00:31:57;5.20;;;3.72;;
635;SDS011;302;50.206;8.196;2022-09-20T00:34:22;4.60;;;2.85;;
635;SDS011;302;50.206;8.196;2022-09-20T00:37:06;5.03;;;3.65;;
635;SDS011;302;50.206;8.196;2022-09-20T00:39:31;4.55;;;3.20;;
635;SDS011;302;50.206;8.196;2022-09-20T00:41:56;4.50;;;3.17;;
635;SDS011;302;50.206;8.196;2022-09-20T00:47:05;9.00;;;3.90;;
635;SDS011;302;50.206;8.196;2022-09-20T00:49:31;6.07;;;4.20;;
635;SDS011;302;50.206;8.196;2022-09-20T00:51:58;6.25;;;4.07;;
635;SDS011;302;50.206;8.196;2022-09-20T00:54:25;10.98;;;3.88;;
635;SDS011;302;50.206;8.196;2022-09-20T00:56:51;4.57;;;4.18;;
635;SDS011;302;50.206;8.196;2022-09-20T00:59:23;4.50;;;3.30;;
635;SDS011;302;50.206;8.196;2022-09-20T01:01:52;5.28;;;3.60;;
635;SDS011;302;50.206;8.196;2022-09-20T01:04:19;4.63;;;2.95;;
635;SDS011;302;50.206;8.196;2022-09-20T01:06:46;5.07;;;3.45;;
635;SDS011;302;50.206;8.196;2022-09-20T01:09:13;7.65;;;4.13;;
635;SDS011;302;50.206;8.196;2022-09-20T01:11:38;5.10;;;3.80;;
635;SDS011;302;50.206;8.196;2022-09-20T01:14:04;6.07;;;3.80;;
635;SDS011;302;50.206;8.196;2022-09-20T01:16:29;4.53;;;3.83;;
635;SDS011;302;50.206;8.196;2022-09-20T01:18:56;5.38;;;4.00;;
635;SDS011;302;50.206;8.196;2022-09-20T01:21:22;5.20;;;3.78;;
635;SDS011;302;50.206;8.196;2022-09-20T01:23:50;6.97;;;4.27;;
635;SDS011;302;50.206;8.196;2022-09-20T01:28:47;5.75;;;4.20;;
635;SDS011;302;50.206;8.196;2022-09-20T01:31:27;4.57;;;3.97;;
635;SDS011;302;50.206;8.196;2022-09-20T01:33:59;3.97;;;3.15;;
635;SDS011;302;50.206;8.196;2022-09-20T01:36:28;5.22;;;3.90;;
635;SDS011;302;50.206;8.196;2022-09-20T01:41:22;5.72;;;3.90;;
635;SDS011;302;50.206;8.196;2022-09-20T01:43:52;5.40;;;3.90;;
635;SDS011;302;50.206;8.196;2022-09-20T01:46:34;4.60;;;3.50;;
635;SDS011;302;50.206;8.196;2022-09-20T01:49:19;4.07;;;3.75;;
635;SDS011;302;50.206;8.196;2022-09-20T01:57:11;4.68;;;3.20;;
635;SDS011;302;50.206;8.196;2022-09-20T01:59:49;6.30;;;3.10;;
635;SDS011;302;50.206;8.196;2022-09-20T02:05:08;5.70;;;3.80;;
635;SDS011;302;50.206;8.196;2022-09-20T02:12:52;5.45;;;3.72;;
635;SDS011;302;50.206;8.196;2022-09-20T02:15:31;4.57;;;3.60;;
635;SDS011;302;50.206;8.196;2022-09-20T02:30:46;7.00;;;4.97;;
635;SDS011;302;50.206;8.196;2022-09-20T02:38:10;8.57;;;6.37;;
635;SDS011;302;50.206;8.196;2022-09-20T02:46:07;7.60;;;5.95;;
635;SDS011;302;50.206;8.196;2022-09-20T02:48:50;6.35;;;5.75;;
635;SDS011;302;50.206;8.196;2022-09-20T02:51:34;7.35;;;6.60;;
635;SDS011;302;50.206;8.196;2022-09-20T02:54:27;10.60;;;7.25;;
635;SDS011;302;50.206;8.196;2022-09-20T02:56:59;9.13;;;7.13;;
635;SDS011;302;50.206;8.196;2022-09-20T03:02:26;6.90;;;6.20;;
635;SDS011;302;50.206;8.196;2022-09-20T03:07:24;8.38;;;6.90;;
635;SDS011;302;50.206;8.196;2022-09-20T03:09:55;11.68;;;7.07;;
635;SDS011;302;50.206;8.196;2022-09-20T03:12:38;13.55;;;8.05;;
635;SDS011;302;50.206;8.196;2022-09-20T03:25:12;8.98;;;7.78;;
635;SDS011;302;50.206;8.196;2022-09-20T03:27:41;11.40;;;9.70;;
635;SDS011;302;50.206;8.196;2022-09-20T03:30:19;11.88;;;8.70;;
635;SDS011;302;50.206;8.196;2022-09-20T03:38:13;12.40;;;9.40;;
635;SDS011;302;50.206;8.196;2022-09-20T03:40:58;12.80;;;9.80;;
635;SDS011;302;50.206;8.196;2022-09-20T03:51:20;12.60;;;9.82;;
635;SDS011;302;50.206;8.196;2022-09-20T03:59:40;13.90;;;9.13;;
635;SDS011;302;50.206;8.196;2022-09-20T04:02:00;13.02;;;10.35;;
635;SDS011;302;50.206;8.196;2022-09-20T04:04:31;12.80;;;10.02;;
635;SDS011;302;50.206;8.196;2022-09-20T04:12:29;10.27;;;9.20;;
635;SDS011;302;50.206;8.196;2022-09-20T04:17:48;11.00;;;9.82;;
635;SDS011;302;50.206;8.196;2022-09-20T04:20:18;12.43;;;11.10;;
635;SDS011;302;50.206;8.196;2022-09-20T04:22:46;15.48;;;11.38;;
635;SDS011;302;50.206;8.196;2022-09-20T04:25:19;13.60;;;10.45;;
635;SDS011;302;50.206;8.196;2022-09-20T04:27:50;11.38;;;10.23;;
635;SDS011;302;50.206;8.196;2022-09-20T04:30:20;15.18;;;12.13;;
635;SDS011;302;50.206;8.196;2022-09-20T04:37:58;14.85;;;11.18;;
635;SDS011;302;50.206;8.196;2022-09-20T04:40:36;14.23;;;11.85;;
635;SDS011;302;50.206;8.196;2022-09-20T04:50:55;16.30;;;11.93;;
635;SDS011;302;50.206;8.196;2022-09-20T04:58:37;17.27;;;12.93;;
635;SDS011;302;50.206;8.196;2022-09-20T05:01:11;14.57;;;12.07;;
635;SDS011;302;50.206;8.196;2022-09-20T05:03:57;15.00;;;12.40;;
635;SDS011;302;50.206;8.196;2022-09-20T05:11:44;17.63;;;15.20;;
635;SDS011;302;50.206;8.196;2022-09-20T05:14:25;17.15;;;14.23;;
635;SDS011;302;50.206;8.196;2022-09-20T05:35:14;15.07;;;13.48;;
635;SDS011;302;50.206;8.196;2022-09-20T05:43:08;16.88;;;14.02;;
635;SDS011;302;50.206;8.196;2022-09-20T05:48:25;17.50;;;12.70;;
635;SDS011;302;50.206;8.196;2022-09-20T05:50:58;14.63;;;12.80;;
635;SDS011;302;50.206;8.196;2022-09-20T05:56:15;14.68;;;13.13;;
635;SDS011;302;50.206;8.196;2022-09-20T05:58:45;14.07;;;12.63;;
635;SDS011;302;50.206;8.196;2022-09-20T06:01:16;13.48;;;12.13;;
635;SDS011;302;50.206;8.196;2022-09-20T06:03:43;14.75;;;13.25;;
635;SDS011;302;50.206;8.196;2022-09-20T06:06:25;15.20;;;13.48;;
635;SDS011;302;50.206;8.196;2022-09-20T06:09:11;14.60;;;13.10;;
635;SDS011;302;50.206;8.196;2022-09-20T06:14:08;17.00;;;15.18;;
635;SDS011;302;50.206;8.196;2022-09-20T06:16:41;15.77;;;13.82;;
635;SDS011;302;50.206;8.196;2022-09-20T06:21:51;15.50;;;12.25;;
635;SDS011;302;50.206;8.196;2022-09-20T06:24:21;13.55;;;11.68;;
635;SDS011;302;50.206;8.196;2022-09-20T06:26:49;13.60;;;10.70;;
635;SDS011;302;50.206;8.196;2022-09-20T06:29:15;14.77;;;12.23;;
635;SDS011;302;50.206;8.196;2022-09-20T06:31:43;16.33;;;13.35;;
635;SDS011;302;50.206;8.196;2022-09-20T06:34:09;11.18;;;10.02;;
635;SDS011;302;50.206;8.196;2022-09-20T06:36:38;14.30;;;11.40;;
635;SDS011;302;50.206;8.196;2022-09-20T06:39:33;13.68;;;12.10;;
635;SDS011;302;50.206;8.196;2022-09-20T06:42:22;12.23;;;10.60;;
635;SDS011;302;50.206;8.196;2022-09-20T06:44:47;12.47;;;11.17;;
635;SDS011;302;50.206;8.196;2022-09-20T06:47:13;13.82;;;11.52;;
635;SDS011;302;50.206;8.196;2022-09-20T06:49:38;15.65;;;13.95;;
635;SDS011;302;50.206;8.196;2022-09-20T06:52:06;12.90;;;11.18;;
635;SDS011;302;50.206;8.196;2022-09-20T06:54:31;10.63;;;9.63;;
635;SDS011;302;50.206;8.196;2022-09-20T06:56:57;12.67;;;10.33;;
635;SDS011;302;50.206;8.196;2022-09-20T06:59:26;13.20;;;11.50;;
635;SDS011;302;50.206;8.196;2022-09-20T07:01:51;13.77;;;11.53;;
635;SDS011;302;50.206;8.196;2022-09-20T07:04:16;14.70;;;12.38;;
635;SDS011;302;50.206;8.196;2022-09-20T07:06:42;14.80;;;13.23;;
635;SDS011;302;50.206;8.196;2022-09-20T07:09:08;12.93;;;11.63;;
635;SDS011;302;50.206;8.196;2022-09-20T07:11:34;14.98;;;11.68;;
635;SDS011;302;50.206;8.196;2022-09-20T07:14:00;14.90;;;11.80;;
635;SDS011;302;50.206;8.196;2022-09-20T07:16:25;15.77;;;12.13;;
635;SDS011;302;50.206;8.196;2022-09-20T07:18:50;13.63;;;10.95;;
635;SDS011;302;50.206;8.196;2022-09-20T07:21:17;13.90;;;10.03;;
635;SDS011;302;50.206;8.196;2022-09-20T07:23:42;13.50;;;11.50;;
635;SDS011;302;50.206;8.196;2022-09-20T07:26:16;12.90;;;11.07;;
635;SDS011;302;50.206;8.196;2022-09-20T07:28:41;14.07;;;11.35;;
635;SDS011;302;50.206;8.196;2022-09-20T07:31:06;12.57;;;10.73;;
635;SDS011;302;50.206;8.196;2022-09-20T07:33:31;10.68;;;9.57;;
635;SDS011;302;50.206;8.196;2022-09-20T07:35:56;12.90;;;11.07;;
635;SDS011;302;50.206;8.196;2022-09-20T07:38:22;10.93;;;9.73;;
635;SDS011;302;50.206;8.196;2022-09-20T07:40:54;11.60;;;10.40;;
635;SDS011;302;50.206;8.196;2022-09-20T07:43:20;12.27;;;10.07;;
635;SDS011;302;50.206;8.196;2022-09-20T07:45:48;14.95;;;10.80;;
635;SDS011;302;50.206;8.196;2022-09-20T07:48:13;12.43;;;10.45;;
635;SDS011;302;50.206;8.196;2022-09-20T07:50:39;14.30;;;11.00;;
635;SDS011;302;50.206;8.196;2022-09-20T07:53:04;10.13;;;9.13;;
635;SDS011;302;50.206;8.196;2022-09-20T07:55:29;9.23;;;8.43;;
635;SDS011;302;50.206;8.196;2022-09-20T07:57:54;13.83;;;8.93;;
635;SDS011;302;50.206;8.196;2022-09-20T08:00:20;9.50;;;8.50;;
635;SDS011;302;50.206;8.196;2022-09-20T08:02:45;10.03;;;7.90;;
635;SDS011;302;50.206;8.196;2022-09-20T08:05:10;12.13;;;9.13;;
635;SDS011;302;50.206;8.196;2022-09-20T08:07:35;10.20;;;7.70;;
635;SDS011;302;50.206;8.196;2022-09-20T08:10:02;8.35;;;7.50;;
635;SDS011;302;50.206;8.196;2022-09-20T08:12:27;7.90;;;7.13;;
635;SDS011;302;50.206;8.196;2022-09-20T08:14:53;7.43;;;6.70;;
635;SDS011;302;50.206;8.196;2022-09-20T08:17:18;9.13;;;6.80;;
635;SDS011;302;50.206;8.196;2022-09-20T08:19:44;7.63;;;6.83;;
635;SDS011;302;50.206;8.196;2022-09-20T08:22:09;9.73;;;6.30;;
635;SDS011;302;50.206;8.196;2022-09-20T08:24:36;10.13;;;7.15;;
635;SDS011;302;50.206;8.196;2022-09-20T08:27:01;12.47;;;9.33;;
635;SDS011;302;50.206;8.196;2022-09-20T08:29:27;7.43;;;6.57;;
635;SDS011;302;50.206;8.196;2022-09-20T08:31:52;6.73;;;6.07;;
635;SDS011;302;50.206;8.196;2022-09-20T08:34:19;9.00;;;7.47;;
635;SDS011;302;50.206;8.196;2022-09-20T08:36:45;7.53;;;6.17;;
635;SDS011;302;50.206;8.196;2022-09-20T08:39:11;7.13;;;6.20;;
635;SDS011;302;50.206;8.196;2022-09-20T08:41:38;7.30;;;6.28;;
635;SDS011;302;50.206;8.196;2022-09-20T08:44:06;12.05;;;6.28;;
635;SDS011;302;50.206;8.196;2022-09-20T08:46:36;7.90;;;6.82;;
635;SDS011;302;50.206;8.196;2022-09-20T08:49:03;8.02;;;6.10;;
635;SDS011;302;50.206;8.196;2022-09-20T08:51:30;7.80;;;7.05;;
635;SDS011;302;50.206;8.196;2022-09-20T08:53:55;9.20;;;6.10;;
635;SDS011;302;50.206;8.196;2022-09-20T08:56:22;6.97;;;6.28;;
635;SDS011;302;50.206;8.196;2022-09-20T08:58:50;6.55;;;5.88;;
635;SDS011;302;50.206;8.196;2022-09-20T09:01:25;8.63;;;5.80;;
635;SDS011;302;50.206;8.196;2022-09-20T09:03:51;7.93;;;5.60;;
635;SDS011;302;50.206;8.196;2022-09-20T09:06:18;7.30;;;6.20;;
635;SDS011;302;50.206;8.196;2022-09-20T09:08:43;5.82;;;5.32;;
635;SDS011;302;50.206;8.196;2022-09-20T09:11:14;5.90;;;5.38;;
635;SDS011;302;50.206;8.196;2022-09-20T09:16:17;6.20;;;5.60;;
635;SDS011;302;50.206;8.196;2022-09-20T09:18:44;9.07;;;6.68;;
635;SDS011;302;50.206;8.196;2022-09-20T09:21:16;6.07;;;5.53;;
635;SDS011;302;50.206;8.196;2022-09-20T09:23:44;7.25;;;6.10;;
635;SDS011;302;50.206;8.196;2022-09-20T09:26:14;6.20;;;5.57;;
635;SDS011;302;50.206;8.196;2022-09-20T09:28:39;6.70;;;5.38;;
635;SDS011;302;50.206;8.196;2022-09-20T09:31:12;5.90;;;5.40;;
635;SDS011;302;50.206;8.196;2022-09-20T09:33:44;6.70;;;6.10;;
635;SDS011;302;50.206;8.196;2022-09-20T09:36:15;8.60;;;6.20;;
635;SDS011;302;50.206;8.196;2022-09-20T09:38:41;6.25;;;5.68;;
635;SDS011;302;50.206;8.196;2022-09-20T09:41:27;6.70;;;5.78;;
635;SDS011;302;50.206;8.196;2022-09-20T09:43:57;7.35;;;6.65;;
635;SDS011;302;50.206;8.196;2022-09-20T09:46:25;6.35;;;5.85;;
635;SDS011;302;50.206;8.196;2022-09-20T09:49:05;6.75;;;6.20;;
635;SDS011;302;50.206;8.196;2022-09-20T09:51:31;6.43;;;5.82;;
635;SDS011;302;50.206;8.196;2022-09-20T09:53:56;7.20;;;6.57;;
635;SDS011;302;50.206;8.196;2022-09-20T09:56:28;5.97;;;5.37;;
635;SDS011;302;50.206;8.196;2022-09-20T10:01:37;6.80;;;6.10;;
635;SDS011;302;50.206;8.196;2022-09-20T10:06:36;6.72;;;6.10;;
635;SDS011;302;50.206;8.196;2022-09-20T10:11:47;6.25;;;5.65;;
635;SDS011;302;50.206;8.196;2022-09-20T10:17:05;6.60;;;6.00;;
635;SDS011;302;50.206;8.196;2022-09-20T10:39:47;3.78;;;3.45;;
635;SDS011;302;50.206;8.196;2022-09-20T10:42:34;3.08;;;2.80;;
635;SDS011;302;50.206;8.196;2022-09-20T10:45:31;4.60;;;4.20;;
635;SDS011;302;50.206;8.196;2022-09-20T10:48:02;6.00;;;5.43;;
635;SDS011;302;50.206;8.196;2022-09-20T10:53:01;5.57;;;4.63;;
635;SDS011;302;50.206;8.196;2022-09-20T11:01:00;3.03;;;2.45;;
635;SDS011;302;50.206;8.196;2022-09-20T11:05:54;3.83;;;3.25;;
635;SDS011;302;50.206;8.196;2022-09-20T11:08:26;2.83;;;2.35;;
635;SDS011;302;50.206;8.196;2022-09-20T11:10:53;2.97;;;2.40;;
635;SDS011;302;50.206;8.196;2022-09-20T11:13:29;3.38;;;2.50;;
635;SDS011;302;50.206;8.196;2022-09-20T11:16:21;3.00;;;2.80;;
635;SDS011;302;50.206;8.196;2022-09-20T11:18:48;4.63;;;3.70;;
635;SDS011;302;50.206;8.196;2022-09-20T11:21:19;3.85;;;3.55;;
635;SDS011;302;50.206;8.196;2022-09-20T11:32:09;4.28;;;3.55;;
635;SDS011;302;50.206;8.196;2022-09-20T11:34:37;4.40;;;3.85;;
635;SDS011;302;50.206;8.196;2022-09-20T11:37:04;4.80;;;4.40;;
635;SDS011;302;50.206;8.196;2022-09-20T11:39:33;4.83;;;4.43;;
635;SDS011;302;50.206;8.196;2022-09-20T11:42:01;5.68;;;4.30;;
635;SDS011;302;50.206;8.196;2022-09-20T11:44:27;5.60;;;5.10;;
635;SDS011;302;50.206;8.196;2022-09-20T11:46:54;5.63;;;5.10;;
635;SDS011;302;50.206;8.196;2022-09-20T11:49:22;4.43;;;3.60;;
635;SDS011;302;50.206;8.196;2022-09-20T11:52:00;4.85;;;4.35;;
635;SDS011;302;50.206;8.196;2022-09-20T11:57:13;4.82;;;3.90;;
635;SDS011;302;50.206;8.196;2022-09-20T11:59:40;8.20;;;4.70;;
635;SDS011;302;50.206;8.196;2022-09-20T12:02:16;3.67;;;3.37;;
635;SDS011;302;50.206;8.196;2022-09-20T12:04:42;4.70;;;3.83;;
635;SDS011;302;50.206;8.196;2022-09-20T12:09:56;5.85;;;3.95;;
635;SDS011;302;50.206;8.196;2022-09-20T12:12:29;3.55;;;3.08;;
635;SDS011;302;50.206;8.196;2022-09-20T12:14:55;4.78;;;3.75;;
635;SDS011;302;50.206;8.196;2022-09-20T12:23:41;4.15;;;3.60;;
635;SDS011;302;50.206;8.196;2022-09-20T12:25:39;3.50;;;3.20;;
635;SDS011;302;50.206;8.196;2022-09-20T12:28:11;3.20;;;3.00;;
635;SDS011;302;50.206;8.196;2022-09-20T12:30:37;4.85;;;4.43;;
635;SDS011;302;50.206;8.196;2022-09-20T12:33:02;6.17;;;4.30;;
635;SDS011;302;50.206;8.196;2022-09-20T12:38:42;3.88;;;3.50;;
635;SDS011;302;50.206;8.196;2022-09-20T12:41:03;4.15;;;3.75;;
635;SDS011;302;50.206;8.196;2022-09-20T12:43:29;3.47;;;3.15;;
635;SDS011;302;50.206;8.196;2022-09-20T12:45:55;7.00;;;3.97;;
635;SDS011;302;50.206;8.196;2022-09-20T12:48:20;6.20;;;3.60;;
635;SDS011;302;50.206;8.196;2022-09-20T12:53:58;5.28;;;3.35;;
635;SDS011;302;50.206;8.196;2022-09-20T12:56:24;4.20;;;3.63;;
635;SDS011;302;50.206;8.196;2022-09-20T12:58:52;5.72;;;3.58;;
635;SDS011;302;50.206;8.196;2022-09-20T13:03:47;5.43;;;3.28;;
635;SDS011;302;50.206;8.196;2022-09-20T13:08:51;4.30;;;3.80;;
635;SDS011;302;50.206;8.196;2022-09-20T13:11:29;3.47;;;3.05;;
635;SDS011;302;50.206;8.196;2022-09-20T13:16:43;2.80;;;2.60;;
635;SDS011;302;50.206;8.196;2022-09-20T13:19:23;3.35;;;2.40;;
635;SDS011;302;50.206;8.196;2022-09-20T13:22:40;2.45;;;2.25;;
635;SDS011;302;50.206;8.196;2022-09-20T13:24:42;3.88;;;2.65;;
635;SDS011;302;50.206;8.196;2022-09-20T13:27:20;2.83;;;2.13;;
635;SDS011;302;50.206;8.196;2022-09-20T13:29:46;3.72;;;2.50;;
635;SDS011;302;50.206;8.196;2022-09-20T13:32:15;3.10;;;2.78;;
635;SDS011;302;50.206;8.196;2022-09-20T13:34:40;2.97;;;2.75;;
635;SDS011;302;50.206;8.196;2022-09-20T13:37:07;2.78;;;2.58;;
635;SDS011;302;50.206;8.196;2022-09-20T13:39:39;2.45;;;2.05;;
635;SDS011;302;50.206;8.196;2022-09-20T13:42:09;2.90;;;2.70;;
635;SDS011;302;50.206;8.196;2022-09-20T13:44:37;3.60;;;2.53;;
635;SDS011;302;50.206;8.196;2022-09-20T13:47:05;3.93;;;2.63;;
635;SDS011;302;50.206;8.196;2022-09-20T13:49:44;2.20;;;2.00;;
635;SDS011;302;50.206;8.196;2022-09-20T13:52:21;3.03;;;2.15;;
635;SDS011;302;50.206;8.196;2022-09-20T13:54:46;2.00;;;1.80;;
635;SDS011;302;50.206;8.196;2022-09-20T13:57:14;2.40;;;2.00;;
635;SDS011;302;50.206;8.196;2022-09-20T13:59:42;2.72;;;1.90;;
635;SDS011;302;50.206;8.196;2022-09-20T14:02:22;3.33;;;2.33;;
635;SDS011;302;50.206;8.196;2022-09-20T14:04:48;2.92;;;2.72;;
635;SDS011;302;50.206;8.196;2022-09-20T14:07:15;2.67;;;2.13;;
635;SDS011;302;50.206;8.196;2022-09-20T14:09:40;2.13;;;1.93;;
635;SDS011;302;50.206;8.196;2022-09-20T14:12:05;2.10;;;2.00;;
635;SDS011;302;50.206;8.196;2022-09-20T14:14:32;2.43;;;1.63;;
635;SDS011;302;50.206;8.196;2022-09-20T14:16:58;2.83;;;1.85;;
635;SDS011;302;50.206;8.196;2022-09-20T14:19:27;2.38;;;1.85;;
635;SDS011;302;50.206;8.196;2022-09-20T14:21:53;2.33;;;1.90;;
635;SDS011;302;50.206;8.196;2022-09-20T14:24:23;3.20;;;2.60;;
635;SDS011;302;50.206;8.196;2022-09-20T14:32:36;2.08;;;1.88;;
635;SDS011;302;50.206;8.196;2022-09-20T14:35:03;4.72;;;2.38;;
635;SDS011;302;50.206;8.196;2022-09-20T14:39:58;2.85;;;1.60;;
635;SDS011;302;50.206;8.196;2022-09-20T14:42:40;1.70;;;1.60;;
635;SDS011;302;50.206;8.196;2022-09-20T14:45:06;2.00;;;1.80;;
635;SDS011;302;50.206;8.196;2022-09-20T14:47:38;1.60;;;1.43;;
635;SDS011;302;50.206;8.196;2022-09-20T14:50:04;3.07;;;2.03;;
635;SDS011;302;50.206;8.196;2022-09-20T14:52:45;2.30;;;1.53;;
635;SDS011;302;50.206;8.196;2022-09-20T14:57:39;1.90;;;1.20;;
635;SDS011;302;50.206;8.196;2022-09-20T15:00:07;1.43;;;1.33;;
635;SDS011;302;50.206;8.196;2022-09-20T15:02:34;3.17;;;1.40;;
635;SDS011;302;50.206;8.196;2022-09-20T15:05:00;1.40;;;0.90;;
635;SDS011;302;50.206;8.196;2022-09-20T15:07:26;1.17;;;1.00;;
635;SDS011;302;50.206;8.196;2022-09-20T15:09:51;1.30;;;1.10;;
635;SDS011;302;50.206;8.196;2022-09-20T15:12:17;2.03;;;1.37;;
635;SDS011;302;50.206;8.196;2022-09-20T15:14:43;2.73;;;1.23;;
635;SDS011;302;50.206;8.196;2022-09-20T15:17:09;1.60;;;1.07;;
635;SDS011;302;50.206;8.196;2022-09-20T15:19:36;2.80;;;1.60;;
635;SDS011;302;50.206;8.196;2022-09-20T15:22:01;2.20;;;1.80;;
635;SDS011;302;50.206;8.196;2022-09-20T15:24:27;3.97;;;1.57;;
635;SDS011;302;50.206;8.196;2022-09-20T15:26:52;2.00;;;1.70;;
635;SDS011;302;50.206;8.196;2022-09-20T15:29:18;2.07;;;1.60;;
635;SDS011;302;50.206;8.196;2022-09-20T15:31:43;1.67;;;1.53;;
635;SDS011;302;50.206;8.196;2022-09-20T15:34:10;1.97;;;1.40;;
635;SDS011;302;50.206;8.196;2022-09-20T15:36:37;5.20;;;1.83;;
635;SDS011;302;50.206;8.196;2022-09-20T15:39:02;1.57;;;1.33;;
635;SDS011;302;50.206;8.196;2022-09-20T15:41:27;2.33;;;1.40;;
635;SDS011;302;50.206;8.196;2022-09-20T15:43:52;4.17;;;2.20;;
635;SDS011;302;50.206;8.196;2022-09-20T15:46:21;2.03;;;1.63;;
635;SDS011;302;50.206;8.196;2022-09-20T15:48:47;2.10;;;1.60;;
635;SDS011;302;50.206;8.196;2022-09-20T15:51:12;3.23;;;2.40;;
635;SDS011;302;50.206;8.196;2022-09-20T15:53:42;2.75;;;2.00;;
635;SDS011;302;50.206;8.196;2022-09-20T15:56:16;3.10;;;2.40;;
635;SDS011;302;50.206;8.196;2022-09-20T15:58:45;2.65;;;2.30;;
635;SDS011;302;50.206;8.196;2022-09-20T16:01:11;6.80;;;4.55;;
635;SDS011;302;50.206;8.196;2022-09-20T16:03:36;3.30;;;2.80;;
635;SDS011;302;50.206;8.196;2022-09-20T16:06:02;3.00;;;2.20;;
635;SDS011;302;50.206;8.196;2022-09-20T16:08:34;2.13;;;1.70;;
635;SDS011;302;50.206;8.196;2022-09-20T16:11:00;3.22;;;2.20;;
635;SDS011;302;50.206;8.196;2022-09-20T16:13:26;2.60;;;2.40;;
635;SDS011;302;50.206;8.196;2022-09-20T16:18:19;2.65;;;2.45;;
635;SDS011;302;50.206;8.196;2022-09-20T16:21:07;4.60;;;2.95;;
635;SDS011;302;50.206;8.196;2022-09-20T16:23:32;2.42;;;2.22;;
635;SDS011;302;50.206;8.196;2022-09-20T16:25:57;3.73;;;2.17;;
635;SDS011;302;50.206;8.196;2022-09-20T16:28:22;4.97;;;2.25;;
635;SDS011;302;50.206;8.196;2022-09-20T16:30:54;2.80;;;2.10;;
635;SDS011;302;50.206;8.196;2022-09-20T16:33:19;3.50;;;2.45;;
635;SDS011;302;50.206;8.196;2022-09-20T16:35:44;2.63;;;2.42;;
635;SDS011;302;50.206;8.196;2022-09-20T16:38:10;3.23;;;2.73;;
635;SDS011;302;50.206;8.196;2022-09-20T16:40:36;2.47;;;2.17;;
635;SDS011;302;50.206;8.196;2022-09-20T16:43:02;3.13;;;2.87;;
635;SDS011;302;50.206;8.196;2022-09-20T16:45:28;3.90;;;2.83;;
635;SDS011;302;50.206;8.196;2022-09-20T16:47:53;3.17;;;2.23;;
635;SDS011;302;50.206;8.196;2022-09-20T16:50:21;2.97;;;2.55;;
635;SDS011;302;50.206;8.196;2022-09-20T16:52:47;3.47;;;2.17;;
635;SDS011;302;50.206;8.196;2022-09-20T16:55:12;3.40;;;1.93;;
635;SDS011;302;50.206;8.196;2022-09-20T16:57:37;1.90;;;1.80;;
635;SDS011;302;50.206;8.196;2022-09-20T17:00:02;2.90;;;2.60;;
635;SDS011;302;50.206;8.196;2022-09-20T17:02:28;2.80;;;2.30;;
635;SDS011;302;50.206;8.196;2022-09-20T17:04:53;1.70;;;1.47;;
635;SDS011;302;50.206;8.196;2022-09-20T17:07:18;1.83;;;1.70;;
635;SDS011;302;50.206;8.196;2022-09-20T17:09:48;2.60;;;1.80;;
635;SDS011;302;50.206;8.196;2022-09-20T17:12:13;2.23;;;2.03;;
635;SDS011;302;50.206;8.196;2022-09-20T17:14:42;2.60;;;1.95;;
635;SDS011;302;50.206;8.196;2022-09-20T17:17:08;2.10;;;1.90;;
635;SDS011;302;50.206;8.196;2022-09-20T17:19:33;2.40;;;1.90;;
635;SDS011;302;50.206;8.196;2022-09-20T17:21:58;1.90;;;1.80;;
635;SDS011;302;50.206;8.196;2022-09-20T17:24:25;1.73;;;1.55;;
635;SDS011;302;50.206;8.196;2022-09-20T17:26:50;1.80;;;1.70;;
635;SDS011;302;50.206;8.196;2022-09-20T17:29:16;4.30;;;2.00;;
635;SDS011;302;50.206;8.196;2022-09-20T17:31:43;3.53;;;2.20;;
635;SDS011;302;50.206;8.196;2022-09-20T17:34:10;2.42;;;2.22;;
635;SDS011;302;50.206;8.196;2022-09-20T17:36:36;3.28;;;2.97;;
635;SDS011;302;50.206;8.196;2022-09-20T17:39:05;4.32;;;2.90;;
635;SDS011;302;50.206;8.196;2022-09-20T17:41:32;2.47;;;2.13;;
635;SDS011;302;50.206;8.196;2022-09-20T17:43:58;3.60;;;3.30;;
635;SDS011;302;50.206;8.196;2022-09-20T17:46:25;2.17;;;1.98;;
635;SDS011;302;50.206;8.196;2022-09-20T17:48:51;2.53;;;2.15;;
635;SDS011;302;50.206;8.196;2022-09-20T17:51:19;2.58;;;2.00;;
635;SDS011;302;50.206;8.196;2022-09-20T17:53:45;1.63;;;1.53;;
635;SDS011;302;50.206;8.196;2022-09-20T17:56:11;2.97;;;2.10;;
635;SDS011;302;50.206;8.196;2022-09-20T17:58:36;2.65;;;2.40;;
635;SDS011;302;50.206;8.196;2022-09-20T18:01:06;2.23;;;1.87;;
635;SDS011;302;50.206;8.196;2022-09-20T18:03:35;2.13;;;1.83;;
635;SDS011;302;50.206;8.196;2022-09-20T18:06:08;2.80;;;2.08;;
635;SDS011;302;50.206;8.196;2022-09-20T18:08:34;2.10;;;1.90;;
635;SDS011;302;50.206;8.196;2022-09-20T18:10:59;2.47;;;2.28;;
635;SDS011;302;50.206;8.196;2022-09-20T18:13:24;1.63;;;1.53;;
635;SDS011;302;50.206;8.196;2022-09-20T18:15:52;2.70;;;1.80;;
635;SDS011;302;50.206;8.196;2022-09-20T18:18:17;1.80;;;1.70;;
635;SDS011;302;50.206;8.196;2022-09-20T18:20:42;1.87;;;1.77;;
635;SDS011;302;50.206;8.196;2022-09-20T18:23:07;2.28;;;1.38;;
635;SDS011;302;50.206;8.196;2022-09-20T18:25:33;1.83;;;1.60;;
635;SDS011;302;50.206;8.196;2022-09-20T18:28:18;3.05;;;2.75;;
635;SDS011;302;50.206;8.196;2022-09-20T18:30:43;3.07;;;2.10;;
635;SDS011;302;50.206;8.196;2022-09-20T18:33:10;2.03;;;1.73;;
635;SDS011;302;50.206;8.196;2022-09-20T18:35:35;1.53;;;1.43;;
635;SDS011;302;50.206;8.196;2022-09-20T18:38:00;2.13;;;1.80;;
635;SDS011;302;50.206;8.196;2022-09-20T18:40:26;2.57;;;1.60;;
635;SDS011;302;50.206;8.196;2022-09-20T18:42:52;1.60;;;1.50;;
635;SDS011;302;50.206;8.196;2022-09-20T18:45:19;1.98;;;1.40;;
635;SDS011;302;50.206;8.196;2022-09-20T18:47:45;2.45;;;1.40;;
635;SDS011;302;50.206;8.196;2022-09-20T18:50:11;1.60;;;1.40;;
635;SDS011;302;50.206;8.196;2022-09-20T18:52:36;1.70;;;1.60;;
635;SDS011;302;50.206;8.196;2022-09-20T18:55:02;4.30;;;1.90;;
635;SDS011;302;50.206;8.196;2022-09-20T18:57:31;3.55;;;1.55;;
635;SDS011;302;50.206;8.196;2022-09-20T18:59:56;1.60;;;1.40;;
635;SDS011;302;50.206;8.196;2022-09-20T19:03:03;2.10;;;1.60;;
635;SDS011;302;50.206;8.196;2022-09-20T19:07:50;3.38;;;1.55;;
635;SDS011;302;50.206;8.196;2022-09-20T19:13:03;1.83;;;1.20;;
635;SDS011;302;50.206;8.196;2022-09-20T19:15:35;4.20;;;1.70;;
635;SDS011;302;50.206;8.196;2022-09-20T19:18:07;1.42;;;1.30;;
635;SDS011;302;50.206;8.196;2022-09-20T19:20:53;1.90;;;1.30;;
635;SDS011;302;50.206;8.196;2022-09-20T19:23:29;1.67;;;1.55;;
635;SDS011;302;50.206;8.196;2022-09-20T19:26:02;1.52;;;1.38;;
635;SDS011;302;50.206;8.196;2022-09-20T19:28:29;1.20;;;1.10;;
635;SDS011;302;50.206;8.196;2022-09-20T19:30:54;6.13;;;2.20;;
635;SDS011;302;50.206;8.196;2022-09-20T19:33:21;3.88;;;1.80;;
635;SDS011;302;50.206;8.196;2022-09-20T19:35:50;2.53;;;1.73;;
635;SDS011;302;50.206;8.196;2022-09-20T19:40:47;2.00;;;1.80;;
635;SDS011;302;50.206;8.196;2022-09-20T19:43:24;2.05;;;1.40;;
635;SDS011;302;50.206;8.196;2022-09-20T19:46:08;4.47;;;1.70;;
635;SDS011;302;50.206;8.196;2022-09-20T19:48:45;2.20;;;1.55;;
635;SDS011;302;50.206;8.196;2022-09-20T19:51:12;1.40;;;1.30;;
635;SDS011;302;50.206;8.196;2022-09-20T19:53:38;1.80;;;1.70;;